Time;durP1;ratioP1;P1;durP2;ratioP2;P2;SDS_P1;SDS_P2;PMS_P1;PMS_P2;Temp;Humidity;BMP_temperature;BMP_pressure;BME280_temperature;BME280_humidity;BME280_pressure;Samples;Min_cycle;Max_cycle;Signal;HPM_P1;HPM_P2
2022/11/05 00:09:33;;;;;;;15.17;12.77;;;;;;;;;;5015741;28;20976;-73
2022/11/05 00:17:33;;;;;;;13.73;12.43;;;;;;;;;;5015659;28;20528;-72
2022/11/05 00:20:01;;;;;;;14.47;12.50;;;;;;;;;;5015287;28;20458;-72
2022/11/05 00:25:16;;;;;;;13.95;12.57;;;;;;;;;;5015313;28;20967;-72
2022/11/05 00:27:47;;;;;;;14.43;11.87;;;;;;;;;;5015375;28;20253;-72
2022/11/05 00:30:18;;;;;;;14.90;13.33;;;;;;;;;;5015270;28;20481;-72
2022/11/05 00:32:45;;;;;;;14.70;11.87;;;;;;;;;;5015149;28;20457;-73
2022/11/05 00:35:13;;;;;;;15.10;12.00;;;;;;;;;;5014992;28;20473;-72
2022/11/05 00:37:40;;;;;;;12.50;11.20;;;;;;;;;;5015124;28;20465;-72
2022/11/05 00:40:07;;;;;;;11.17;10.13;;;;;;;;;;5014976;28;20490;-72
2022/11/05 00:45:21;;;;;;;11.10;10.00;;;;;;;;;;5015240;28;20588;-73
2022/11/05 00:50:34;;;;;;;11.63;10.47;;;;;;;;;;5014957;28;20446;-72
2022/11/05 00:53:01;;;;;;;12.87;10.33;;;;;;;;;;5014938;28;20458;-73
2022/11/05 00:55:32;;;;;;;11.17;10.10;;;;;;;;;;5014686;28;20490;-73
2022/11/05 00:57:59;;;;;;;12.63;9.70;;;;;;;;;;5014972;28;20533;-73
2022/11/05 01:00:31;;;;;;;11.40;8.97;;;;;;;;;;5014900;28;20504;-73
2022/11/05 01:02:59;;;;;;;10.37;8.60;;;;;;;;;;5015163;28;20450;-73
2022/11/05 01:05:28;;;;;;;9.67;8.67;;;;;;;;;;5014571;28;20446;-73
2022/11/05 01:07:57;;;;;;;9.57;8.70;;;;;;;;;;5014456;28;20813;-73
2022/11/05 01:10:24;;;;;;;10.70;7.97;;;;;;;;;;5014464;28;20533;-72
2022/11/05 01:12:53;;;;;;;11.03;8.23;;;;;;;;;;5014503;28;20195;-72
2022/11/05 01:15:20;;;;;;;9.90;8.50;;;;;;;;;;5014405;28;20896;-73
2022/11/05 01:17:49;;;;;;;7.70;7.00;;;;;;;;;;5014310;28;20504;-72
2022/11/05 01:20:16;;;;;;;8.93;7.35;;;;;;;;;;5014277;28;20508;-73
2022/11/05 01:22:44;;;;;;;10.63;6.30;;;;;;;;;;5014504;28;20192;-73
2022/11/05 01:25:11;;;;;;;7.97;7.17;;;;;;;;;;5014404;28;20500;-73
2022/11/05 01:27:38;;;;;;;6.53;5.93;;;;;;;;;;5014346;28;20940;-72
2022/11/05 01:30:08;;;;;;;9.43;6.87;;;;;;;;;;5014102;28;20454;-72
2022/11/05 01:32:36;;;;;;;6.20;5.60;;;;;;;;;;5014165;28;20451;-72
2022/11/05 01:35:05;;;;;;;6.23;5.70;;;;;;;;;;5013458;28;20965;-72
2022/11/05 01:37:32;;;;;;;6.73;6.03;;;;;;;;;;5014140;28;20450;-72
2022/11/05 01:39:59;;;;;;;7.47;5.30;;;;;;;;;;5014121;28;20476;-72
2022/11/05 01:42:27;;;;;;;9.13;6.17;;;;;;;;;;5014032;28;20984;-72
2022/11/05 01:45:01;;;;;;;5.72;5.22;;;;;;;;;;5013550;28;20522;-72
2022/11/05 01:47:33;;;;;;;5.90;5.40;;;;;;;;;;5013811;28;20197;-72
2022/11/05 01:50:02;;;;;;;6.40;5.73;;;;;;;;;;5013776;28;20450;-72
2022/11/05 01:52:32;;;;;;;6.25;5.57;;;;;;;;;;5013807;28;20449;-72
2022/11/05 01:55:00;;;;;;;6.93;4.80;;;;;;;;;;5013703;28;20565;-72
2022/11/05 01:57:27;;;;;;;5.93;5.43;;;;;;;;;;5013768;28;20191;-73
2022/11/05 01:59:57;;;;;;;8.47;5.63;;;;;;;;;;5013477;28;20542;-72
2022/11/05 02:02:24;;;;;;;9.63;4.70;;;;;;;;;;5013508;28;20486;-72
2022/11/05 02:04:53;;;;;;;5.70;4.80;;;;;;;;;;5013324;28;20454;-73
2022/11/05 02:07:21;;;;;;;5.40;4.97;;;;;;;;;;5013609;28;20504;-73
2022/11/05 02:09:54;;;;;;;12.47;5.73;;;;;;;;;;5013592;28;20453;-73
2022/11/05 02:12:22;;;;;;;7.50;5.03;;;;;;;;;;5013570;28;20834;-72
2022/11/05 02:14:50;;;;;;;5.20;4.70;;;;;;;;;;5013613;28;20477;-72
2022/11/05 02:17:26;;;;;;;8.00;4.77;;;;;;;;;;5013565;28;20514;-72
2022/11/05 02:20:09;;;;;;;4.82;4.30;;;;;;;;;;5013468;28;20590;-72
2022/11/05 02:22:54;;;;;;;6.73;4.60;;;;;;;;;;5011589;28;20554;-72
2022/11/05 02:25:35;;;;;;;5.43;5.03;;;;;;;;;;5003446;28;20454;-72
2022/11/05 02:28:14;;;;;;;10.93;5.20;;;;;;;;;;5013437;28;20446;-73
2022/11/05 02:30:46;;;;;;;6.03;5.40;;;;;;;;;;5013282;28;20941;-72
2022/11/05 02:33:20;;;;;;;7.43;5.53;;;;;;;;;;5013053;28;20198;-72
2022/11/05 02:35:59;;;;;;;7.37;5.50;;;;;;;;;;5013359;28;20474;-73
2022/11/05 02:38:33;;;;;;;6.00;5.50;;;;;;;;;;5013431;28;20541;-72
2022/11/05 02:41:05;;;;;;;8.93;5.82;;;;;;;;;;5013192;28;20462;-72
2022/11/05 02:43:37;;;;;;;6.17;5.57;;;;;;;;;;5012872;28;20262;-73
2022/11/05 02:46:11;;;;;;;9.40;7.10;;;;;;;;;;5013377;28;20508;-73
2022/11/05 02:48:44;;;;;;;7.50;5.80;;;;;;;;;;5016737;28;20459;-73
2022/11/05 02:51:16;;;;;;;11.02;6.20;;;;;;;;;;5017220;28;20477;-72
2022/11/05 02:53:46;;;;;;;7.27;6.67;;;;;;;;;;5017035;28;20289;-73
2022/11/05 02:56:17;;;;;;;10.65;6.35;;;;;;;;;;5016862;28;20496;-73
2022/11/05 02:58:44;;;;;;;8.60;7.00;;;;;;;;;;5017211;28;20230;-73
2022/11/05 03:01:13;;;;;;;7.10;6.40;;;;;;;;;;5016856;28;20826;-73
2022/11/05 03:03:41;;;;;;;7.20;5.65;;;;;;;;;;5016844;28;20457;-74
2022/11/05 03:06:24;;;;;;;6.70;6.00;;;;;;;;;;5016867;28;20231;-73
2022/11/05 03:09:01;;;;;;;10.90;5.90;;;;;;;;;;5016694;28;20453;-73
2022/11/05 03:11:31;;;;;;;6.80;6.10;;;;;;;;;;5016925;28;20458;-73
2022/11/05 03:14:00;;;;;;;8.70;5.97;;;;;;;;;;5016607;28;20454;-73
2022/11/05 03:16:32;;;;;;;7.77;5.60;;;;;;;;;;5016560;28;20888;-73
2022/11/05 03:19:05;;;;;;;9.40;5.73;;;;;;;;;;5016384;28;20485;-73
2022/11/05 03:21:37;;;;;;;7.93;5.80;;;;;;;;;;5016684;28;20450;-74
2022/11/05 03:24:08;;;;;;;6.80;6.10;;;;;;;;;;5016422;28;20461;-73
2022/11/05 03:26:38;;;;;;;6.17;5.57;;;;;;;;;;5016513;28;20446;-74
2022/11/05 03:29:07;;;;;;;12.20;6.80;;;;;;;;;;5016429;28;20862;-73
2022/11/05 03:31:37;;;;;;;6.53;5.53;;;;;;;;;;5016296;28;20537;-73
2022/11/05 03:34:05;;;;;;;7.80;5.73;;;;;;;;;;5016176;28;20472;-73
2022/11/05 03:36:38;;;;;;;6.13;5.63;;;;;;;;;;5016080;28;21072;-73
2022/11/05 03:39:07;;;;;;;9.73;6.40;;;;;;;;;;5016317;28;20464;-73
2022/11/05 03:41:38;;;;;;;7.73;5.90;;;;;;;;;;5016125;28;20447;-73
2022/11/05 03:44:07;;;;;;;6.53;5.87;;;;;;;;;;5015875;28;20482;-73
2022/11/05 03:46:37;;;;;;;8.10;5.63;;;;;;;;;;5016185;28;20454;-73
2022/11/05 03:49:06;;;;;;;11.80;5.90;;;;;;;;;;5016170;28;20496;-73
2022/11/05 03:51:39;;;;;;;11.97;6.30;;;;;;;;;;5015843;28;20866;-73
2022/11/05 03:54:06;;;;;;;10.67;6.90;;;;;;;;;;5015999;28;20504;-73
2022/11/05 03:56:36;;;;;;;6.97;6.37;;;;;;;;;;5015708;28;20474;-73
2022/11/05 03:59:04;;;;;;;7.30;6.15;;;;;;;;;;5015494;28;20457;-73
2022/11/05 04:01:31;;;;;;;8.43;6.57;;;;;;;;;;5015956;28;20540;-73
2022/11/05 04:04:00;;;;;;;8.30;5.53;;;;;;;;;;5015970;28;20488;-73
2022/11/05 04:14:41;;;;;;;7.07;5.93;;;;;;;;;;5015614;28;20480;-73
2022/11/05 04:17:08;;;;;;;10.70;6.50;;;;;;;;;;5015367;28;20517;-73
2022/11/05 04:25:09;;;;;;;7.60;5.73;;;;;;;;;;5015424;28;20446;-72
2022/11/05 04:27:36;;;;;;;7.37;6.00;;;;;;;;;;5015290;28;20450;-72
2022/11/05 04:30:18;;;;;;;7.67;6.30;;;;;;;;;;5015170;28;20446;-72
2022/11/05 04:32:55;;;;;;;9.47;6.73;;;;;;;;;;5015342;28;20872;-72
2022/11/05 04:35:24;;;;;;;6.50;5.90;;;;;;;;;;5015260;28;20496;-72
2022/11/05 04:37:52;;;;;;;9.40;6.40;;;;;;;;;;5015095;28;20532;-72
2022/11/05 04:40:19;;;;;;;10.23;6.20;;;;;;;;;;5014937;28;20520;-72
2022/11/05 04:42:46;;;;;;;11.17;6.20;;;;;;;;;;5014935;28;20972;-72
2022/11/05 04:45:13;;;;;;;8.47;6.00;;;;;;;;;;5014846;28;20839;-72
2022/11/05 04:47:40;;;;;;;12.00;7.10;;;;;;;;;;5015003;28;20790;-72
2022/11/05 04:50:09;;;;;;;7.60;5.50;;;;;;;;;;5015000;28;20446;-73
2022/11/05 04:52:37;;;;;;;9.03;6.90;;;;;;;;;;5014794;28;20512;-73
2022/11/05 04:55:05;;;;;;;7.90;6.30;;;;;;;;;;5014654;28;20460;-73
2022/11/05 04:57:34;;;;;;;7.33;6.30;;;;;;;;;;5014502;28;20482;-73
2022/11/05 05:00:04;;;;;;;9.27;6.13;;;;;;;;;;5014843;28;20450;-73
2022/11/05 05:02:32;;;;;;;7.73;6.60;;;;;;;;;;5014648;28;20454;-73
2022/11/05 05:04:59;;;;;;;6.63;5.63;;;;;;;;;;5014696;28;20485;-74
2022/11/05 05:07:27;;;;;;;8.47;6.40;;;;;;;;;;5014466;28;20450;-73
2022/11/05 05:09:55;;;;;;;9.70;6.00;;;;;;;;;;5013460;28;20453;-72
2022/11/05 05:12:22;;;;;;;7.30;6.03;;;;;;;;;;5014582;28;20474;-73
2022/11/05 05:14:50;;;;;;;8.20;5.27;;;;;;;;;;5014544;28;20454;-73
2022/11/05 05:17:17;;;;;;;8.10;6.07;;;;;;;;;;5014351;28;20494;-73
2022/11/05 05:22:31;;;;;;;7.83;6.07;;;;;;;;;;5014344;28;20437;-73
2022/11/05 05:25:00;;;;;;;8.03;6.50;;;;;;;;;;5014222;28;20442;-73
2022/11/05 05:27:28;;;;;;;6.20;5.40;;;;;;;;;;5014337;28;20447;-73
2022/11/05 05:29:55;;;;;;;10.60;6.57;;;;;;;;;;5014231;28;20448;-73
2022/11/05 05:32:22;;;;;;;8.00;5.60;;;;;;;;;;5014029;28;20237;-73
2022/11/05 05:34:49;;;;;;;6.27;5.60;;;;;;;;;;5014353;28;20454;-73
2022/11/05 05:37:17;;;;;;;9.60;5.80;;;;;;;;;;5014040;28;21001;-73
2022/11/05 05:39:44;;;;;;;6.13;5.18;;;;;;;;;;5014212;28;20446;-73
2022/11/05 05:42:13;;;;;;;6.17;5.57;;;;;;;;;;5013850;28;20245;-73
2022/11/05 05:44:40;;;;;;;9.10;5.73;;;;;;;;;;5013781;28;20473;-73
2022/11/05 05:47:08;;;;;;;10.93;5.93;;;;;;;;;;5013681;28;20849;-73
2022/11/05 05:49:36;;;;;;;6.17;5.50;;;;;;;;;;5013709;28;20536;-73
2022/11/05 05:52:04;;;;;;;11.17;6.20;;;;;;;;;;5013953;28;20456;-72
2022/11/05 05:54:31;;;;;;;7.25;5.82;;;;;;;;;;5013824;28;20460;-72
2022/11/05 05:56:59;;;;;;;7.23;5.60;;;;;;;;;;5013591;28;20306;-73
2022/11/05 05:59:27;;;;;;;6.43;5.40;;;;;;;;;;5013617;28;20532;-73
2022/11/05 06:01:55;;;;;;;7.20;5.43;;;;;;;;;;5013813;28;20930;-73
2022/11/05 06:04:22;;;;;;;7.17;5.13;;;;;;;;;;5013659;28;20457;-73
2022/11/05 06:06:49;;;;;;;7.23;5.50;;;;;;;;;;5013419;28;20545;-73
2022/11/05 06:09:18;;;;;;;6.90;5.80;;;;;;;;;;5013503;28;20496;-73
2022/11/05 06:11:46;;;;;;;14.90;5.07;;;;;;;;;;5013421;28;20638;-73
2022/11/05 06:14:14;;;;;;;11.67;5.50;;;;;;;;;;5013331;28;20496;-73
2022/11/05 06:16:42;;;;;;;9.63;5.20;;;;;;;;;;5013490;28;20454;-73
2022/11/05 06:19:09;;;;;;;5.30;4.80;;;;;;;;;;5013304;28;20442;-73
2022/11/05 06:21:37;;;;;;;10.17;5.37;;;;;;;;;;5013182;28;20454;-73
2022/11/05 06:24:04;;;;;;;6.60;5.80;;;;;;;;;;5013331;28;20997;-73
2022/11/05 06:26:31;;;;;;;7.90;5.67;;;;;;;;;;5013120;28;20865;-73
2022/11/05 06:28:59;;;;;;;9.10;5.27;;;;;;;;;;5013189;28;20513;-73
2022/11/05 06:31:26;;;;;;;13.15;6.00;;;;;;;;;;5013146;28;20504;-73
2022/11/05 06:33:54;;;;;;;6.83;5.00;;;;;;;;;;5013041;28;20195;-73
2022/11/05 06:36:21;;;;;;;10.07;5.00;;;;;;;;;;5013147;28;20473;-73
2022/11/05 06:38:52;;;;;;;9.90;5.33;;;;;;;;;;5013017;28;20482;-73
2022/11/05 06:41:20;;;;;;;8.33;5.70;;;;;;;;;;5012931;28;20465;-73
2022/11/05 06:43:48;;;;;;;8.65;5.85;;;;;;;;;;5013049;28;20478;-73
2022/11/05 06:46:17;;;;;;;7.10;4.97;;;;;;;;;;5012935;28;20192;-73
2022/11/05 06:48:45;;;;;;;9.50;5.40;;;;;;;;;;5013086;28;20513;-73
2022/11/05 06:51:14;;;;;;;6.33;5.20;;;;;;;;;;5012932;28;20498;-73
2022/11/05 06:53:41;;;;;;;5.70;4.80;;;;;;;;;;5012894;28;20513;-73
2022/11/05 06:56:08;;;;;;;5.87;4.60;;;;;;;;;;5012925;28;20450;-73
2022/11/05 06:58:36;;;;;;;8.97;4.67;;;;;;;;;;5012790;28;20481;-73
2022/11/05 07:01:06;;;;;;;8.83;5.00;;;;;;;;;;5013053;28;20462;-73
2022/11/05 07:03:33;;;;;;;13.53;5.77;;;;;;;;;;5012909;28;20449;-73
2022/11/05 07:06:01;;;;;;;6.80;5.00;;;;;;;;;;5012812;28;20447;-73
2022/11/05 07:08:31;;;;;;;6.20;5.60;;;;;;;;;;5013018;28;20618;-73
2022/11/05 07:10:58;;;;;;;14.10;6.07;;;;;;;;;;5013191;28;20450;-73
2022/11/05 07:13:25;;;;;;;8.57;5.73;;;;;;;;;;5012815;28;20845;-73
2022/11/05 07:15:52;;;;;;;7.73;5.00;;;;;;;;;;5012711;28;20454;-73
2022/11/05 07:18:20;;;;;;;5.50;5.00;;;;;;;;;;5012664;28;20886;-73
2022/11/05 07:20:48;;;;;;;7.97;6.20;;;;;;;;;;5012605;28;20194;-73
2022/11/05 07:23:15;;;;;;;11.50;6.00;;;;;;;;;;5012628;28;21040;-73
2022/11/05 07:25:43;;;;;;;8.00;5.20;;;;;;;;;;5012838;28;20479;-73
2022/11/05 07:28:13;;;;;;;7.47;5.80;;;;;;;;;;5012759;28;20930;-73
2022/11/05 07:30:40;;;;;;;9.87;6.00;;;;;;;;;;5012662;28;20500;-73
2022/11/05 07:33:07;;;;;;;8.40;7.50;;;;;;;;;;5013455;28;20549;-73
2022/11/05 07:35:34;;;;;;;8.03;6.83;;;;;;;;;;5016098;28;20456;-74
2022/11/05 07:38:02;;;;;;;9.17;6.40;;;;;;;;;;5016307;28;20482;-73
2022/11/05 07:40:30;;;;;;;11.27;6.67;;;;;;;;;;5016361;28;20450;-73
2022/11/05 07:42:59;;;;;;;10.20;6.10;;;;;;;;;;5016181;28;20524;-73
2022/11/05 07:45:27;;;;;;;9.80;6.20;;;;;;;;;;5015811;28;20478;-73
2022/11/05 07:47:55;;;;;;;7.13;5.43;;;;;;;;;;5015902;28;20500;-73
2022/11/05 07:50:22;;;;;;;12.10;6.60;;;;;;;;;;5016134;28;20450;-74
2022/11/05 07:52:50;;;;;;;8.30;6.70;;;;;;;;;;5016087;28;20577;-73
2022/11/05 07:55:20;;;;;;;7.23;5.50;;;;;;;;;;5015864;28;20967;-73
2022/11/05 07:57:49;;;;;;;7.80;5.97;;;;;;;;;;5015886;28;20913;-73
2022/11/05 08:00:21;;;;;;;11.53;5.77;;;;;;;;;;5015990;28;20478;-73
2022/11/05 08:02:56;;;;;;;7.83;5.93;;;;;;;;;;5015997;28;20477;-73
2022/11/05 08:05:23;;;;;;;10.00;5.63;;;;;;;;;;5015741;28;20552;-73
2022/11/05 08:07:50;;;;;;;9.90;5.40;;;;;;;;;;5015750;28;20849;-72
2022/11/05 08:10:17;;;;;;;14.20;7.87;;;;;;;;;;5015673;28;20458;-73
2022/11/05 08:12:45;;;;;;;9.40;5.50;;;;;;;;;;5015458;28;20451;-73
2022/11/05 08:15:12;;;;;;;11.80;6.53;;;;;;;;;;5015772;28;20480;-73
2022/11/05 08:17:40;;;;;;;7.57;5.27;;;;;;;;;;5015328;28;20572;-72
2022/11/05 08:20:08;;;;;;;10.10;5.50;;;;;;;;;;5015596;28;20451;-73
2022/11/05 08:22:35;;;;;;;10.73;5.63;;;;;;;;;;5015433;28;20453;-72
2022/11/05 08:25:04;;;;;;;8.20;5.37;;;;;;;;;;5015349;28;20806;-73
2022/11/05 08:27:31;;;;;;;8.27;5.20;;;;;;;;;;5015301;28;20450;-73
2022/11/05 08:29:58;;;;;;;6.17;5.40;;;;;;;;;;5015407;28;20457;-73
2022/11/05 08:32:25;;;;;;;13.90;5.87;;;;;;;;;;5015367;28;20454;-73
2022/11/05 08:34:54;;;;;;;8.13;5.67;;;;;;;;;;5015287;28;20799;-73
2022/11/05 08:37:21;;;;;;;7.23;5.40;;;;;;;;;;5015133;28;20464;-73
2022/11/05 08:39:48;;;;;;;17.93;6.83;;;;;;;;;;5014927;28;20486;-73
2022/11/05 08:42:16;;;;;;;11.83;5.97;;;;;;;;;;5015235;28;20459;-73
2022/11/05 08:44:43;;;;;;;7.77;5.77;;;;;;;;;;5014852;28;20486;-73
2022/11/05 08:47:10;;;;;;;6.73;5.50;;;;;;;;;;5015019;28;20462;-73
2022/11/05 08:49:37;;;;;;;8.00;5.60;;;;;;;;;;5014879;28;20462;-73
2022/11/05 08:52:06;;;;;;;9.90;5.30;;;;;;;;;;5014886;28;20481;-73
2022/11/05 08:54:33;;;;;;;7.73;5.07;;;;;;;;;;5014724;28;20446;-74
2022/11/05 08:57:00;;;;;;;10.57;5.47;;;;;;;;;;5014953;28;20508;-74
2022/11/05 08:59:28;;;;;;;8.60;5.47;;;;;;;;;;5014705;28;20482;-73
2022/11/05 09:01:55;;;;;;;7.77;5.53;;;;;;;;;;5014572;28;20541;-74
2022/11/05 09:04:22;;;;;;;7.40;5.53;;;;;;;;;;5014681;28;20819;-73
2022/11/05 09:06:49;;;;;;;7.50;5.50;;;;;;;;;;5014616;28;20230;-73
2022/11/05 09:09:18;;;;;;;8.75;5.45;;;;;;;;;;5014551;28;20450;-73
2022/11/05 09:11:45;;;;;;;10.73;5.93;;;;;;;;;;5014550;28;20206;-73
2022/11/05 09:14:12;;;;;;;11.17;5.80;;;;;;;;;;5014587;28;20450;-74
2022/11/05 09:16:40;;;;;;;15.23;6.77;;;;;;;;;;5014644;28;20450;-73
2022/11/05 09:19:07;;;;;;;9.40;6.00;;;;;;;;;;5014292;28;20881;-73
2022/11/05 09:21:35;;;;;;;6.80;4.87;;;;;;;;;;5014271;28;20895;-73
2022/11/05 09:24:02;;;;;;;7.23;5.00;;;;;;;;;;5014457;28;20450;-73
2022/11/05 09:26:31;;;;;;;11.53;5.53;;;;;;;;;;5014432;28;20485;-73
2022/11/05 09:28:58;;;;;;;10.73;6.05;;;;;;;;;;5014259;28;20869;-73
2022/11/05 09:31:25;;;;;;;8.60;5.90;;;;;;;;;;5014586;28;20203;-74
2022/11/05 09:33:52;;;;;;;5.60;4.67;;;;;;;;;;5014043;28;20458;-74
2022/11/05 09:36:19;;;;;;;10.33;5.73;;;;;;;;;;5013936;28;20459;-73
2022/11/05 09:38:46;;;;;;;10.37;5.30;;;;;;;;;;5014086;28;20587;-73
2022/11/05 09:41:15;;;;;;;9.33;5.80;;;;;;;;;;5014087;28;20458;-73
2022/11/05 09:43:44;;;;;;;10.70;5.67;;;;;;;;;;5013773;28;20540;-73
2022/11/05 09:46:16;;;;;;;6.30;5.43;;;;;;;;;;5013851;28;20512;-73
2022/11/05 09:48:44;;;;;;;10.87;5.07;;;;;;;;;;5013824;28;20493;-73
2022/11/05 09:51:14;;;;;;;11.13;5.90;;;;;;;;;;5013902;28;20450;-73
2022/11/05 09:53:44;;;;;;;11.20;5.13;;;;;;;;;;5014009;28;20453;-73
2022/11/05 09:56:15;;;;;;;6.50;4.90;;;;;;;;;;5013368;28;20247;-73
2022/11/05 09:58:46;;;;;;;8.57;5.83;;;;;;;;;;5013661;28;20485;-73
2022/11/05 10:01:15;;;;;;;11.63;5.30;;;;;;;;;;5013652;28;20450;-73
2022/11/05 10:03:45;;;;;;;9.13;5.88;;;;;;;;;;5013759;28;20533;-72
2022/11/05 10:06:15;;;;;;;10.47;5.40;;;;;;;;;;5013682;28;20547;-72
2022/11/05 10:08:43;;;;;;;6.90;4.50;;;;;;;;;;5013452;28;20454;-72
2022/11/05 10:11:14;;;;;;;8.33;4.07;;;;;;;;;;5013554;28;20454;-72
2022/11/05 10:13:42;;;;;;;9.67;4.40;;;;;;;;;;5013403;28;20581;-72
2022/11/05 10:16:18;;;;;;;8.80;4.70;;;;;;;;;;5013563;28;20450;-72
2022/11/05 10:18:49;;;;;;;9.63;3.77;;;;;;;;;;5013443;28;20964;-73
2022/11/05 10:21:18;;;;;;;10.93;4.33;;;;;;;;;;5013430;28;20948;-74
2022/11/05 10:23:45;;;;;;;9.32;4.20;;;;;;;;;;5013238;28;20458;-73
2022/11/05 10:26:14;;;;;;;8.60;4.07;;;;;;;;;;5013306;28;20214;-73
2022/11/05 10:28:41;;;;;;;6.30;3.70;;;;;;;;;;5013433;28;20861;-73
2022/11/05 10:31:10;;;;;;;9.50;3.93;;;;;;;;;;5013129;28;20446;-73
2022/11/05 10:33:41;;;;;;;12.33;3.93;;;;;;;;;;5013325;28;20791;-73
2022/11/05 10:36:10;;;;;;;6.85;3.97;;;;;;;;;;5013207;28;20446;-73
2022/11/05 10:38:38;;;;;;;6.60;3.83;;;;;;;;;;5012931;28;20751;-73
2022/11/05 10:41:14;;;;;;;8.27;3.63;;;;;;;;;;5012975;28;20454;-73
2022/11/05 10:43:45;;;;;;;8.53;3.40;;;;;;;;;;5013108;28;20562;-73
2022/11/05 10:46:22;;;;;;;9.13;3.30;;;;;;;;;;5012953;28;20482;-73
2022/11/05 10:48:55;;;;;;;7.30;3.43;;;;;;;;;;5012958;28;20945;-73
2022/11/05 10:51:22;;;;;;;8.20;3.00;;;;;;;;;;5012994;28;20545;-73
2022/11/05 10:53:51;;;;;;;6.73;3.47;;;;;;;;;;5012949;28;20543;-73
2022/11/05 10:56:28;;;;;;;6.78;3.00;;;;;;;;;;5012979;28;20539;-73
2022/11/05 10:58:57;;;;;;;10.15;3.25;;;;;;;;;;5012921;28;20219;-74
2022/11/05 11:01:25;;;;;;;11.87;3.00;;;;;;;;;;5012938;28;20531;-73
2022/11/05 11:04:04;;;;;;;7.33;2.20;;;;;;;;;;5012829;28;20454;-73
2022/11/05 11:06:33;;;;;;;13.67;2.40;;;;;;;;;;5013226;28;20475;-72
2022/11/05 11:09:02;;;;;;;4.17;2.10;;;;;;;;;;5015136;28;20450;-72
2022/11/05 11:11:30;;;;;;;8.00;2.07;;;;;;;;;;5016790;28;20478;-73
2022/11/05 11:14:02;;;;;;;6.20;2.20;;;;;;;;;;5016587;28;20528;-72
2022/11/05 11:16:32;;;;;;;11.68;2.10;;;;;;;;;;5016975;28;20449;-72
2022/11/05 11:19:02;;;;;;;4.33;1.97;;;;;;;;;;5016494;28;20218;-73
2022/11/05 11:21:30;;;;;;;5.90;1.80;;;;;;;;;;5016616;28;20454;-73
2022/11/05 11:23:58;;;;;;;8.90;2.27;;;;;;;;;;5016465;28;20462;-73
2022/11/05 11:26:26;;;;;;;4.90;1.77;;;;;;;;;;5016346;28;20450;-73
2022/11/05 11:28:55;;;;;;;4.47;1.80;;;;;;;;;;5016320;28;20500;-73
2022/11/05 11:31:23;;;;;;;3.47;2.07;;;;;;;;;;5016567;28;20453;-72
2022/11/05 11:33:52;;;;;;;5.40;1.90;;;;;;;;;;5016404;28;20858;-72
2022/11/05 11:36:25;;;;;;;4.33;1.77;;;;;;;;;;5016364;28;20450;-72
2022/11/05 11:38:58;;;;;;;2.77;1.57;;;;;;;;;;5016295;28;20485;-72
2022/11/05 11:41:26;;;;;;;4.50;1.50;;;;;;;;;;5016331;28;20437;-72
2022/11/05 11:43:55;;;;;;;4.33;1.57;;;;;;;;;;5015749;28;21014;-72
2022/11/05 11:46:22;;;;;;;6.40;2.43;;;;;;;;;;5016159;28;20446;-72
2022/11/05 11:48:50;;;;;;;2.43;1.70;;;;;;;;;;5016617;28;20541;-73
2022/11/05 11:51:18;;;;;;;8.73;1.70;;;;;;;;;;5015987;28;20512;-73
2022/11/05 11:53:48;;;;;;;4.07;1.80;;;;;;;;;;5015900;28;20544;-73
2022/11/05 11:56:16;;;;;;;3.60;1.83;;;;;;;;;;5016059;28;20450;-73
2022/11/05 11:58:45;;;;;;;7.10;1.90;;;;;;;;;;5015892;28;20495;-71
2022/11/05 12:01:27;;;;;;;7.40;3.43;;;;;;;;;;5015933;28;20458;-71
2022/11/05 12:03:58;;;;;;;3.63;1.90;;;;;;;;;;5015725;28;20485;-72
2022/11/05 12:06:27;;;;;;;3.00;1.80;;;;;;;;;;5015539;28;20489;-71
2022/11/05 12:09:02;;;;;;;3.20;2.10;;;;;;;;;;5015851;28;20454;-71
2022/11/05 12:11:33;;;;;;;2.73;1.87;;;;;;;;;;5015693;28;20508;-72
2022/11/05 12:14:03;;;;;;;3.00;1.17;;;;;;;;;;5015633;28;20461;-72
2022/11/05 12:16:39;;;;;;;6.90;1.90;;;;;;;;;;5015476;28;20451;-71
2022/11/05 12:19:12;;;;;;;6.17;1.97;;;;;;;;;;5015262;28;20499;-71
2022/11/05 12:21:41;;;;;;;3.73;1.20;;;;;;;;;;5015607;28;20458;-72
2022/11/05 12:24:19;;;;;;;4.43;1.50;;;;;;;;;;5015479;28;20450;-72
2022/11/05 12:26:51;;;;;;;6.87;1.43;;;;;;;;;;5015471;28;20461;-72
2022/11/05 12:29:28;;;;;;;3.90;1.40;;;;;;;;;;5015317;28;20941;-72
2022/11/05 12:32:02;;;;;;;5.03;1.60;;;;;;;;;;5015406;28;20456;-72
2022/11/05 12:34:38;;;;;;;4.43;1.40;;;;;;;;;;5015358;28;20516;-72
2022/11/05 12:37:12;;;;;;;5.20;1.40;;;;;;;;;;5015204;28;20508;-72
2022/11/05 12:39:47;;;;;;;3.30;1.35;;;;;;;;;;5014839;28;20219;-72
2022/11/05 12:42:21;;;;;;;3.97;1.50;;;;;;;;;;5015178;28;20194;-72
2022/11/05 12:44:55;;;;;;;5.40;1.70;;;;;;;;;;5014918;28;20984;-72
2022/11/05 12:47:30;;;;;;;8.47;1.67;;;;;;;;;;5014975;28;20504;-72
2022/11/05 12:50:04;;;;;;;4.67;1.40;;;;;;;;;;5014820;28;20462;-72
2022/11/05 12:52:58;;;;;;;6.17;2.00;;;;;;;;;;5015025;28;20809;-72
2022/11/05 12:55:29;;;;;;;3.53;1.33;;;;;;;;;;4980019;28;20442;-71
2022/11/05 12:58:01;;;;;;;2.33;1.50;;;;;;;;;;5014763;28;20486;-71
2022/11/05 13:00:29;;;;;;;4.93;2.37;;;;;;;;;;5014482;28;20576;-71
2022/11/05 13:02:59;;;;;;;6.05;1.95;;;;;;;;;;5014650;28;20481;-71
2022/11/05 13:05:30;;;;;;;3.77;1.10;;;;;;;;;;5014664;28;20191;-71
2022/11/05 13:08:01;;;;;;;3.67;1.70;;;;;;;;;;5014604;28;20512;-71
2022/11/05 13:10:32;;;;;;;4.27;1.37;;;;;;;;;;5014531;28;20554;-71
2022/11/05 13:13:04;;;;;;;11.13;1.97;;;;;;;;;;5014360;28;20455;-71
2022/11/05 13:15:33;;;;;;;3.67;1.40;;;;;;;;;;5014658;28;20453;-71
2022/11/05 13:18:03;;;;;;;5.00;1.47;;;;;;;;;;5014275;28;20482;-71
2022/11/05 13:20:32;;;;;;;4.73;1.53;;;;;;;;;;5014340;28;20486;-71
2022/11/05 13:23:01;;;;;;;3.73;1.80;;;;;;;;;;5014300;28;20530;-71
2022/11/05 13:25:30;;;;;;;3.58;1.17;;;;;;;;;;5013875;28;20454;-72
2022/11/05 13:28:00;;;;;;;2.87;1.90;;;;;;;;;;5014179;28;20191;-72
2022/11/05 13:30:29;;;;;;;7.40;1.73;;;;;;;;;;5013538;28;20450;-72
2022/11/05 13:33:01;;;;;;;4.10;1.23;;;;;;;;;;5014042;28;20458;-72
2022/11/05 13:35:30;;;;;;;3.40;1.30;;;;;;;;;;5014117;28;20516;-72
2022/11/05 13:40:54;;;;;;;4.33;1.63;;;;;;;;;;5013985;28;20955;-72
2022/11/05 13:43:30;;;;;;;2.33;1.10;;;;;;;;;;5013859;28;20860;-72
2022/11/05 13:46:11;;;;;;;6.00;1.70;;;;;;;;;;5013955;28;20517;-71
2022/11/05 13:48:55;;;;;;;5.38;1.35;;;;;;;;;;5014042;28;20450;-71
2022/11/05 13:51:31;;;;;;;5.77;1.27;;;;;;;;;;5013974;28;20198;-72
2022/11/05 13:54:06;;;;;;;2.80;1.00;;;;;;;;;;5013832;28;20508;-71
2022/11/05 13:56:41;;;;;;;7.73;1.67;;;;;;;;;;5013642;28;20460;-71
2022/11/05 13:59:24;;;;;;;6.97;1.77;;;;;;;;;;5013886;28;20453;-71
2022/11/05 14:01:54;;;;;;;8.47;2.00;;;;;;;;;;5011658;28;20454;-71
2022/11/05 14:04:27;;;;;;;13.97;3.10;;;;;;;;;;5013899;28;20446;-72
2022/11/05 14:06:55;;;;;;;5.63;3.70;;;;;;;;;;5013461;28;20458;-71
2022/11/05 14:09:25;;;;;;;4.27;1.50;;;;;;;;;;5013714;28;20446;-71
2022/11/05 14:11:55;;;;;;;4.03;1.63;;;;;;;;;;5013330;28;21012;-72
2022/11/05 14:14:23;;;;;;;3.40;1.37;;;;;;;;;;5013399;28;20481;-72
2022/11/05 14:16:52;;;;;;;4.23;1.70;;;;;;;;;;5013391;28;20802;-71
2022/11/05 14:19:43;;;;;;;3.93;1.47;;;;;;;;;;5013344;28;20453;-71
2022/11/05 14:22:29;;;;;;;2.77;1.40;;;;;;;;;;4958174;28;20956;-71
2022/11/05 14:24:56;;;;;;;5.83;1.27;;;;;;;;;;5013385;28;20549;-71
2022/11/05 14:27:42;;;;;;;4.63;1.40;;;;;;;;;;5013316;28;20462;-71
2022/11/05 14:30:28;;;;;;;5.18;1.75;;;;;;;;;;5013427;28;20448;-73
2022/11/05 14:33:03;;;;;;;6.43;2.13;;;;;;;;;;5013328;28;20191;-71
2022/11/05 14:35:36;;;;;;;2.17;1.40;;;;;;;;;;5013314;28;21012;-71
2022/11/05 14:38:04;;;;;;;2.53;1.50;;;;;;;;;;5013131;28;20454;-71
2022/11/05 14:40:35;;;;;;;2.13;1.33;;;;;;;;;;5012925;28;20540;-71
2022/11/05 14:43:04;;;;;;;4.65;1.45;;;;;;;;;;5013104;28;20458;-71
2022/11/05 14:45:33;;;;;;;6.43;2.03;;;;;;;;;;5012811;28;20227;-71
2022/11/05 14:48:01;;;;;;;5.50;2.40;;;;;;;;;;5013101;28;20540;-72
2022/11/05 14:50:32;;;;;;;2.40;1.90;;;;;;;;;;5012914;28;20643;-71
2022/11/05 14:53:03;;;;;;;3.38;2.28;;;;;;;;;;5012960;28;20453;-71
2022/11/05 14:55:32;;;;;;;3.93;2.10;;;;;;;;;;5013111;28;20211;-71
2022/11/05 14:58:17;;;;;;;5.03;2.97;;;;;;;;;;5012996;28;20454;-71
2022/11/05 15:00:51;;;;;;;6.23;4.50;;;;;;;;;;5003035;28;20815;-71
2022/11/05 15:03:35;;;;;;;3.67;3.37;;;;;;;;;;5012834;28;20848;-71
2022/11/05 15:06:19;;;;;;;8.60;3.30;;;;;;;;;;5012784;28;20504;-70
2022/11/05 15:08:56;;;;;;;4.43;2.60;;;;;;;;;;5012788;28;20954;-71
2022/11/05 15:11:26;;;;;;;7.27;3.30;;;;;;;;;;5012824;28;20450;-71
2022/11/05 15:13:59;;;;;;;6.93;3.70;;;;;;;;;;5013000;28;20434;-71
2022/11/05 15:16:33;;;;;;;7.57;4.23;;;;;;;;;;5012834;28;20454;-71
2022/11/05 15:19:00;;;;;;;3.47;2.90;;;;;;;;;;5012835;28;20508;-71
2022/11/05 15:21:29;;;;;;;3.60;2.97;;;;;;;;;;5012690;28;20988;-71
2022/11/05 15:23:56;;;;;;;7.70;3.40;;;;;;;;;;5012602;28;20506;-71
2022/11/05 15:26:26;;;;;;;10.27;3.20;;;;;;;;;;5012632;28;20450;-71
2022/11/05 15:28:53;;;;;;;8.40;3.77;;;;;;;;;;5012706;28;20846;-71
2022/11/05 15:31:25;;;;;;;4.68;3.78;;;;;;;;;;5012735;28;20450;-71
2022/11/05 15:34:10;;;;;;;4.57;4.17;;;;;;;;;;5012587;28;20191;-71
2022/11/05 15:36:37;;;;;;;6.75;5.30;;;;;;;;;;5012553;28;21017;-71
2022/11/05 15:39:14;;;;;;;15.40;7.60;;;;;;;;;;5012529;28;20282;-71